createdAt,value
2023-05-14T00:00:35.367Z,23.64
2023-05-14T00:01:36.379Z,23.67
2023-05-14T00:02:35.448Z,23.67
2023-05-14T00:03:35.428Z,23.64
2023-05-14T00:04:36.517Z,23.64
2023-05-14T00:05:36.341Z,23.67
2023-05-14T00:06:35.335Z,23.65
2023-05-14T00:07:36.326Z,23.67
2023-05-14T00:08:35.306Z,23.67
2023-05-14T00:09:36.340Z,23.64
2023-05-14T00:10:35.306Z,23.67
2023-05-14T00:11:36.340Z,23.64
2023-05-14T00:12:35.283Z,23.63
2023-05-14T00:13:36.289Z,23.63
2023-05-14T00:14:36.272Z,23.65
2023-05-14T00:15:35.329Z,23.63
2023-05-14T00:16:35.383Z,23.63
2023-05-14T00:17:36.332Z,23.63
2023-05-14T00:18:36.273Z,23.65
2023-05-14T00:19:36.256Z,23.63
2023-05-14T00:20:35.288Z,23.65
2023-05-14T00:21:36.220Z,23.63
2023-05-14T00:22:35.245Z,23.61
2023-05-14T00:23:36.268Z,23.58
2023-05-14T00:24:36.226Z,23.61
2023-05-14T00:25:35.233Z,23.58
2023-05-14T00:26:35.247Z,23.61
2023-05-14T00:27:35.200Z,23.58
2023-05-14T00:28:36.169Z,23.63
2023-05-14T00:29:36.175Z,23.63
2023-05-14T00:30:35.170Z,23.61
2023-05-14T00:31:36.230Z,23.60
2023-05-14T00:32:36.177Z,23.61
2023-05-14T00:33:35.153Z,23.61
2023-05-14T00:34:35.148Z,23.60
2023-05-14T00:35:35.143Z,23.60
2023-05-14T00:36:35.150Z,23.57
2023-05-14T00:37:35.112Z,23.58
2023-05-14T00:38:36.129Z,23.57
2023-05-14T00:39:35.106Z,23.58
2023-05-14T00:40:35.121Z,23.60
2023-05-14T00:41:35.123Z,23.60
2023-05-14T00:42:36.152Z,23.60
2023-05-14T00:43:36.193Z,23.57
2023-05-14T00:44:35.207Z,23.57
2023-05-14T00:45:36.222Z,23.57
2023-05-14T00:46:36.244Z,23.58
2023-05-14T00:47:36.325Z,23.57
2023-05-14T00:48:35.272Z,23.58
2023-05-14T00:49:35.313Z,23.56
2023-05-14T00:50:36.370Z,23.58
2023-05-14T00:51:36.338Z,23.56
2023-05-14T00:52:36.377Z,23.56
2023-05-14T00:53:36.394Z,23.54
2023-05-14T00:54:35.421Z,23.56
2023-05-14T00:55:35.433Z,23.56
2023-05-14T00:56:36.472Z,23.54
2023-05-14T00:57:35.489Z,23.56
2023-05-14T00:58:36.493Z,23.56
2023-05-14T00:59:36.555Z,23.56
2023-05-14T01:00:36.586Z,23.57
2023-05-14T01:01:35.575Z,23.56
2023-05-14T01:02:36.717Z,23.54
2023-05-14T01:03:36.741Z,23.54
2023-05-14T01:04:36.641Z,23.53
2023-05-14T01:05:36.772Z,23.57
2023-05-14T01:06:35.842Z,23.53
2023-05-14T01:07:36.700Z,23.53
2023-05-14T01:08:36.719Z,23.54
2023-05-14T01:09:35.733Z,23.56
2023-05-14T01:10:35.754Z,23.52
2023-05-14T01:11:36.784Z,23.54
2023-05-14T01:12:35.794Z,23.56
2023-05-14T01:13:36.815Z,23.54
2023-05-14T01:14:36.841Z,23.56
2023-05-14T01:15:36.896Z,23.53
2023-05-14T01:16:37.306Z,23.52
2023-05-14T01:17:37.017Z,23.52
2023-05-14T01:18:36.980Z,23.53
2023-05-14T01:19:36.959Z,23.54
2023-05-14T01:20:37.000Z,23.56
2023-05-14T01:21:37.012Z,23.52
2023-05-14T01:22:36.043Z,23.53
2023-05-14T01:23:37.062Z,23.53
2023-05-14T01:24:37.079Z,23.53
2023-05-14T01:25:36.104Z,23.50
2023-05-14T01:26:36.120Z,23.53
2023-05-14T01:27:37.147Z,23.53
2023-05-14T01:28:37.169Z,23.50
2023-05-14T01:29:36.185Z,23.49
2023-05-14T01:30:36.243Z,23.50
2023-05-14T01:31:37.277Z,23.52
2023-05-14T01:32:37.318Z,23.53
2023-05-14T01:33:37.268Z,23.52
2023-05-14T01:34:37.313Z,23.54
2023-05-14T01:35:37.338Z,23.52
2023-05-14T01:36:36.350Z,23.53
2023-05-14T01:37:36.372Z,23.53
2023-05-14T01:38:36.390Z,23.50
2023-05-14T01:39:37.423Z,23.52
2023-05-14T01:40:37.450Z,23.49
2023-05-14T01:41:37.486Z,23.50
2023-05-14T01:42:37.492Z,23.49
2023-05-14T01:43:37.587Z,23.50
2023-05-14T01:44:36.519Z,23.50
2023-05-14T01:45:37.568Z,23.52
2023-05-14T01:46:37.750Z,23.49
2023-05-14T01:47:36.678Z,23.50
2023-05-14T01:48:37.643Z,23.47
2023-05-14T01:49:37.642Z,23.50
2023-05-14T01:50:37.707Z,23.49
2023-05-14T01:51:37.695Z,23.49
2023-05-14T01:52:37.726Z,23.50
2023-05-14T01:53:37.756Z,23.46
2023-05-14T01:54:36.795Z,23.49
2023-05-14T01:55:37.809Z,23.46
2023-05-14T01:56:37.834Z,23.50
2023-05-14T01:57:37.862Z,23.52
2023-05-14T01:58:36.880Z,23.52
2023-05-14T01:59:37.913Z,23.52
2023-05-14T02:00:38.003Z,23.47
2023-05-14T02:01:38.035Z,23.50
2023-05-14T02:02:38.081Z,23.50
2023-05-14T02:03:38.133Z,23.47
2023-05-14T02:04:38.068Z,23.49
2023-05-14T02:05:38.102Z,23.49
2023-05-14T02:06:37.138Z,23.46
2023-05-14T02:07:38.165Z,23.49
2023-05-14T02:08:37.188Z,23.47
2023-05-14T02:09:37.212Z,23.49
2023-05-14T02:10:37.266Z,23.47
2023-05-14T02:11:37.284Z,23.47
2023-05-14T02:12:38.297Z,23.50
2023-05-14T02:13:37.349Z,23.49
2023-05-14T02:14:37.361Z,23.47
2023-05-14T02:15:37.410Z,23.49
2023-05-14T02:16:38.460Z,23.46
2023-05-14T02:17:37.449Z,23.47
2023-05-14T02:18:38.520Z,23.46
2023-05-14T02:19:38.542Z,23.47
2023-05-14T02:20:37.533Z,23.47
2023-05-14T02:21:37.571Z,23.44
2023-05-14T02:22:37.673Z,23.44
2023-05-14T02:23:41.715Z,23.47
2023-05-14T02:24:37.621Z,23.46
2023-05-14T02:25:38.630Z,23.44
2023-05-14T02:26:38.621Z,23.46
2023-05-14T02:27:37.607Z,23.47
2023-05-14T02:28:38.637Z,23.46
2023-05-14T02:29:38.598Z,23.44
2023-05-14T02:30:38.604Z,23.46
2023-05-14T02:31:38.593Z,23.43
2023-05-14T02:32:37.678Z,23.46
2023-05-14T02:33:38.619Z,23.44
2023-05-14T02:34:37.556Z,23.44
2023-05-14T02:35:38.581Z,23.44
2023-05-14T02:36:37.550Z,23.43
2023-05-14T02:37:37.541Z,23.46
2023-05-14T02:38:38.526Z,23.43
2023-05-14T02:39:38.548Z,23.44
2023-05-14T02:40:37.521Z,23.43
2023-05-14T02:41:37.500Z,23.44
2023-05-14T02:42:38.526Z,23.43
2023-05-14T02:43:38.525Z,23.44
2023-05-14T02:44:38.496Z,23.43
2023-05-14T02:45:37.480Z,23.46
2023-05-14T02:46:38.510Z,23.47
2023-05-14T02:47:38.117Z,23.43
2023-05-14T02:48:37.461Z,23.43
2023-05-14T02:49:38.450Z,23.44
2023-05-14T02:50:38.480Z,23.42
2023-05-14T02:51:38.554Z,23.42
2023-05-14T02:52:38.570Z,23.42
2023-05-14T02:53:38.569Z,23.47
2023-05-14T02:54:38.587Z,23.42
2023-05-14T02:55:38.609Z,23.42
2023-05-14T02:56:37.646Z,23.42
2023-05-14T02:57:37.694Z,23.43
2023-05-14T02:58:38.708Z,23.40
2023-05-14T02:59:37.730Z,23.44
2023-05-14T03:00:37.843Z,23.40
2023-05-14T03:01:38.807Z,23.42
2023-05-14T03:02:37.910Z,23.40
2023-05-14T03:03:38.861Z,23.40
2023-05-14T03:04:38.884Z,23.43
2023-05-14T03:05:37.923Z,23.43
2023-05-14T03:06:38.186Z,23.43
2023-05-14T03:07:38.015Z,23.44
2023-05-14T03:08:38.041Z,23.43
2023-05-14T03:09:39.041Z,23.42
2023-05-14T03:10:39.108Z,23.42
2023-05-14T03:11:38.148Z,23.42
2023-05-14T03:12:38.164Z,23.42
2023-05-14T03:13:38.222Z,23.43
2023-05-14T03:14:38.226Z,23.43
2023-05-14T03:15:39.322Z,23.39
2023-05-14T03:16:39.330Z,23.43
2023-05-14T03:17:38.330Z,23.39
2023-05-14T03:18:39.410Z,23.39
2023-05-14T03:19:38.369Z,23.40
2023-05-14T03:20:39.385Z,23.40
2023-05-14T03:21:38.453Z,23.39
2023-05-14T03:22:38.481Z,23.42
2023-05-14T03:23:39.595Z,23.43
2023-05-14T03:24:39.591Z,23.42
2023-05-14T03:25:39.570Z,23.42
2023-05-14T03:26:38.616Z,23.43
2023-05-14T03:27:39.644Z,23.42
2023-05-14T03:28:39.685Z,23.39
2023-05-14T03:29:39.699Z,23.44
2023-05-14T03:30:38.756Z,23.40
2023-05-14T03:31:39.789Z,23.37
2023-05-14T03:32:38.809Z,23.40
2023-05-14T03:33:39.839Z,23.43
2023-05-14T03:34:39.924Z,23.37
2023-05-14T03:35:38.917Z,23.40
2023-05-14T03:36:38.974Z,23.40
2023-05-14T03:37:39.986Z,23.39
2023-05-14T03:38:39.013Z,23.40
2023-05-14T03:39:39.066Z,23.37
2023-05-14T03:40:39.083Z,23.39
2023-05-14T03:41:39.128Z,23.39
2023-05-14T03:42:40.154Z,23.39
2023-05-14T03:43:39.183Z,23.39
2023-05-14T03:44:39.203Z,23.37
2023-05-14T03:45:40.286Z,23.39
2023-05-14T03:46:40.293Z,23.39
2023-05-14T03:47:39.382Z,23.39
2023-05-14T03:48:40.386Z,23.39
2023-05-14T03:49:39.403Z,23.39
2023-05-14T03:50:40.415Z,23.39
2023-05-14T03:51:40.456Z,23.39
2023-05-14T03:52:39.471Z,23.37
2023-05-14T03:53:40.528Z,23.40
2023-05-14T03:54:40.551Z,23.36
2023-05-14T03:55:39.598Z,23.39
2023-05-14T03:56:40.609Z,23.37
2023-05-14T03:57:40.648Z,23.39
2023-05-14T03:58:40.675Z,23.39
2023-05-14T03:59:39.711Z,23.40
2023-05-14T04:00:39.773Z,23.37
2023-05-14T04:01:39.780Z,23.39
2023-05-14T04:02:40.867Z,23.37
2023-05-14T04:03:40.037Z,23.40
2023-05-14T04:04:39.908Z,23.36
2023-05-14T04:05:39.921Z,23.37
2023-05-14T04:06:40.957Z,23.37
2023-05-14T04:07:40.974Z,23.36
2023-05-14T04:08:40.992Z,23.34
2023-05-14T04:09:41.069Z,23.36
2023-05-14T04:10:41.134Z,23.37
2023-05-14T04:11:41.126Z,23.36
2023-05-14T04:12:41.131Z,23.36
2023-05-14T04:13:40.173Z,23.34
2023-05-14T04:14:41.223Z,23.36
2023-05-14T04:15:40.252Z,23.34
2023-05-14T04:16:40.362Z,23.36
2023-05-14T04:17:40.356Z,23.34
2023-05-14T04:18:40.423Z,23.36
2023-05-14T04:19:40.418Z,23.39
2023-05-14T04:20:40.453Z,23.36
2023-05-14T04:21:41.507Z,23.33
2023-05-14T04:22:41.539Z,23.34
2023-05-14T04:23:40.581Z,23.34
2023-05-14T04:24:41.622Z,23.33
2023-05-14T04:25:40.661Z,23.36
2023-05-14T04:26:40.740Z,23.36
2023-05-14T04:27:40.753Z,23.33
2023-05-14T04:28:41.774Z,23.34
2023-05-14T04:29:40.808Z,23.34
2023-05-14T04:30:40.859Z,23.32
2023-05-14T04:31:40.948Z,23.32
2023-05-14T04:32:41.951Z,23.34
2023-05-14T04:33:41.974Z,23.36
2023-05-14T04:34:42.013Z,23.36
2023-05-14T04:35:41.037Z,23.33
2023-05-14T04:36:41.081Z,23.33
2023-05-14T04:37:42.114Z,23.34
2023-05-14T04:38:42.184Z,23.33
2023-05-14T04:39:42.182Z,23.36
2023-05-14T04:40:42.226Z,23.34
2023-05-14T04:41:41.268Z,23.34
2023-05-14T04:42:42.315Z,23.33
2023-05-14T04:43:41.324Z,23.34
2023-05-14T04:44:41.381Z,23.33
2023-05-14T04:45:41.452Z,23.32
2023-05-14T04:46:42.460Z,23.33
2023-05-14T04:47:42.568Z,23.33
2023-05-14T04:48:42.555Z,23.34
2023-05-14T04:49:41.574Z,23.30
2023-05-14T04:50:41.631Z,23.33
2023-05-14T04:51:42.673Z,23.34
2023-05-14T04:52:41.699Z,23.34
2023-05-14T04:53:42.737Z,23.33
2023-05-14T04:54:42.844Z,23.32
2023-05-14T04:55:42.815Z,23.33
2023-05-14T04:56:42.863Z,23.32
2023-05-14T04:57:41.902Z,23.33
2023-05-14T04:58:42.971Z,23.33
2023-05-14T04:59:42.965Z,23.32
2023-05-14T05:00:43.044Z,23.32
2023-05-14T05:01:42.109Z,23.33
2023-05-14T05:02:43.160Z,23.30
2023-05-14T05:03:43.230Z,23.33
2023-05-14T05:04:43.188Z,23.34
2023-05-14T05:05:43.223Z,23.33
2023-05-14T05:06:43.293Z,23.30
2023-05-14T05:07:43.309Z,23.30
2023-05-14T05:08:43.344Z,23.32
2023-05-14T05:09:43.393Z,23.32
2023-05-14T05:10:43.439Z,23.30
2023-05-14T05:11:43.514Z,23.29
2023-05-14T05:12:42.520Z,23.32
2023-05-14T05:13:43.564Z,23.30
2023-05-14T05:14:43.636Z,23.32
2023-05-14T05:15:43.671Z,23.30
2023-05-14T05:16:43.709Z,23.32
2023-05-14T05:17:43.774Z,23.30
2023-05-14T05:18:42.791Z,23.32
2023-05-14T05:19:44.502Z,23.30
2023-05-14T05:20:42.865Z,23.33
2023-05-14T05:21:42.904Z,23.33
2023-05-14T05:22:43.986Z,23.30
2023-05-14T05:23:43.001Z,23.33
2023-05-14T05:24:43.029Z,23.33
2023-05-14T05:25:43.089Z,23.30
2023-05-14T05:26:43.138Z,23.32
2023-05-14T05:27:44.142Z,23.30
2023-05-14T05:28:44.183Z,23.33
2023-05-14T05:29:43.238Z,23.32
2023-05-14T05:30:44.303Z,23.29
2023-05-14T05:31:43.321Z,23.33
2023-05-14T05:32:44.392Z,23.32
2023-05-14T05:33:43.378Z,23.32
2023-05-14T05:34:44.405Z,23.30
2023-05-14T05:35:44.465Z,23.32
2023-05-14T05:36:44.491Z,23.32
2023-05-14T05:37:43.520Z,23.32
2023-05-14T05:38:43.556Z,23.34
2023-05-14T05:39:43.621Z,23.33
2023-05-14T05:40:44.638Z,23.32
2023-05-14T05:41:43.678Z,23.30
2023-05-14T05:42:44.705Z,23.30
2023-05-14T05:43:43.758Z,23.27
2023-05-14T05:44:44.776Z,23.29
2023-05-14T05:45:44.812Z,23.32
2023-05-14T05:46:43.953Z,23.30
2023-05-14T05:47:43.904Z,23.32
2023-05-14T05:48:43.924Z,23.30
2023-05-14T05:49:44.998Z,23.29
2023-05-14T05:50:44.991Z,23.30
2023-05-14T05:51:44.042Z,23.30
2023-05-14T05:52:45.070Z,23.30
2023-05-14T05:53:45.108Z,23.30
2023-05-14T05:54:44.144Z,23.30
2023-05-14T05:55:44.182Z,23.30
2023-05-14T05:56:45.237Z,23.30
2023-05-14T05:57:45.261Z,23.29
2023-05-14T05:58:44.356Z,23.32
2023-05-14T05:59:44.334Z,23.30
2023-05-14T06:00:44.369Z,23.27
2023-05-14T06:01:44.496Z,23.32
2023-05-14T06:02:44.579Z,23.30
2023-05-14T06:03:48.298Z,23.29
2023-05-14T06:04:44.470Z,23.30
2023-05-14T06:05:45.470Z,23.33
2023-05-14T06:06:45.508Z,23.32
2023-05-14T06:07:44.465Z,23.33
2023-05-14T06:08:45.458Z,23.32
2023-05-14T06:09:45.469Z,23.32
2023-05-14T06:10:47.554Z,23.27
2023-05-14T06:11:44.435Z,23.32
2023-05-14T06:12:44.432Z,23.30
2023-05-14T06:13:45.403Z,23.33
2023-05-14T06:14:45.399Z,23.33
2023-05-14T06:15:45.408Z,23.33
2023-05-14T06:16:44.420Z,23.32
2023-05-14T06:17:45.408Z,23.30
2023-05-14T06:18:45.439Z,23.32
2023-05-14T06:19:44.389Z,23.33
2023-05-14T06:20:44.385Z,23.34
2023-05-14T06:21:45.345Z,23.36
2023-05-14T06:22:45.347Z,23.33
2023-05-14T06:23:45.350Z,23.32
2023-05-14T06:24:45.340Z,23.34
2023-05-14T06:25:44.334Z,23.33
2023-05-14T06:26:44.332Z,23.32
2023-05-14T06:27:44.315Z,23.34
2023-05-14T06:28:44.310Z,23.32
2023-05-14T06:29:45.293Z,23.34
2023-05-14T06:30:45.304Z,23.34
2023-05-14T06:31:44.339Z,23.33
2023-05-14T06:32:44.358Z,23.33
2023-05-14T06:33:44.279Z,23.36
2023-05-14T06:34:45.271Z,23.34
2023-05-14T06:35:44.245Z,23.37
2023-05-14T06:36:44.245Z,23.34
2023-05-14T06:37:44.243Z,23.36
2023-05-14T06:38:45.238Z,23.34
2023-05-14T06:39:44.230Z,23.33
2023-05-14T06:40:45.227Z,23.33
2023-05-14T06:41:44.249Z,23.32
2023-05-14T06:42:45.211Z,23.33
2023-05-14T06:43:45.200Z,23.36
2023-05-14T06:44:44.183Z,23.37
2023-05-14T06:45:45.192Z,23.34
2023-05-14T06:46:45.168Z,23.36
2023-05-14T06:47:44.219Z,23.34
2023-05-14T06:48:44.194Z,23.34
2023-05-14T06:49:45.166Z,23.33
2023-05-14T06:50:45.191Z,23.37
2023-05-14T06:51:44.159Z,23.34
2023-05-14T06:52:45.162Z,23.34
2023-05-14T06:53:45.200Z,23.36
2023-05-14T06:54:45.240Z,23.33
2023-05-14T06:55:45.246Z,23.36
2023-05-14T06:56:44.288Z,23.36
2023-05-14T06:57:44.342Z,23.36
2023-05-14T06:58:45.364Z,23.34
2023-05-14T06:59:45.427Z,23.39
2023-05-14T07:00:44.459Z,23.39
2023-05-14T07:01:44.496Z,23.36
2023-05-14T07:02:45.517Z,23.37
2023-05-14T07:03:44.490Z,23.39
2023-05-14T07:04:44.584Z,23.37
2023-05-14T07:05:45.552Z,23.39
2023-05-14T07:06:45.618Z,23.39
2023-05-14T07:07:45.616Z,23.40
2023-05-14T07:08:45.634Z,23.37
2023-05-14T07:09:45.672Z,23.40
2023-05-14T07:10:45.671Z,23.40
2023-05-14T07:11:44.705Z,23.39
2023-05-14T07:12:44.739Z,23.40
2023-05-14T07:13:45.754Z,23.40
2023-05-14T07:14:44.763Z,23.40
2023-05-14T07:15:44.776Z,23.40
2023-05-14T07:16:45.844Z,23.40
2023-05-14T07:17:45.904Z,23.42
2023-05-14T07:18:44.857Z,23.42
2023-05-14T07:19:45.851Z,23.40
2023-05-14T07:20:44.853Z,23.42
2023-05-14T07:21:44.865Z,23.42
2023-05-14T07:22:45.909Z,23.42
2023-05-14T07:23:45.904Z,23.43
2023-05-14T07:24:45.912Z,23.42
2023-05-14T07:25:44.939Z,23.40
2023-05-14T07:26:45.970Z,23.43
2023-05-14T07:27:45.989Z,23.44
2023-05-14T07:28:44.976Z,23.43
2023-05-14T07:29:45.016Z,23.44
2023-05-14T07:30:46.017Z,23.44
2023-05-14T07:31:45.118Z,23.46
2023-05-14T07:32:45.064Z,23.46
2023-05-14T07:33:45.038Z,23.46
2023-05-14T07:34:45.057Z,23.47
2023-05-14T07:35:46.093Z,23.46
2023-05-14T07:36:45.092Z,23.44
2023-05-14T07:37:46.108Z,23.46
2023-05-14T07:38:45.141Z,23.49
2023-05-14T07:39:46.131Z,23.44
2023-05-14T07:40:45.147Z,23.46
2023-05-14T07:41:45.164Z,23.49
2023-05-14T07:42:45.174Z,23.47
2023-05-14T07:43:46.228Z,23.46
2023-05-14T07:44:45.196Z,23.49
2023-05-14T07:45:46.212Z,23.49
2023-05-14T07:46:46.229Z,23.50
2023-05-14T07:47:46.303Z,23.50
2023-05-14T07:48:45.309Z,23.52
2023-05-14T07:49:45.269Z,23.52
2023-05-14T07:50:45.282Z,23.52
2023-05-14T07:51:45.310Z,23.53
2023-05-14T07:52:46.317Z,23.53
2023-05-14T07:53:45.299Z,23.50
2023-05-14T07:54:45.342Z,23.54
2023-05-14T07:55:45.349Z,23.53
2023-05-14T07:56:46.354Z,23.53
2023-05-14T07:57:45.376Z,23.50
2023-05-14T07:58:46.370Z,23.53
2023-05-14T07:59:45.358Z,23.54
2023-05-14T08:00:45.383Z,23.53
2023-05-14T08:01:46.407Z,23.53
2023-05-14T08:02:46.598Z,23.54
2023-05-14T08:03:46.555Z,23.56
2023-05-14T08:04:46.416Z,23.57
2023-05-14T08:05:45.429Z,23.54
2023-05-14T08:06:46.461Z,23.54
2023-05-14T08:07:45.445Z,23.58
2023-05-14T08:08:46.443Z,23.56
2023-05-14T08:09:46.459Z,23.54
2023-05-14T08:10:45.534Z,23.58
2023-05-14T08:11:45.469Z,23.60
2023-05-14T08:12:46.465Z,23.57
2023-05-14T08:13:46.502Z,23.60
2023-05-14T08:14:45.488Z,23.60
2023-05-14T08:15:46.520Z,23.63
2023-05-14T08:16:45.522Z,23.58
2023-05-14T08:17:45.612Z,23.60
2023-05-14T08:18:46.552Z,23.60
2023-05-14T08:19:46.507Z,23.64
2023-05-14T08:20:46.514Z,23.60
2023-05-14T08:21:46.534Z,23.61
2023-05-14T08:22:46.526Z,23.61
2023-05-14T08:23:46.523Z,23.63
2023-05-14T08:24:46.534Z,23.63
2023-05-14T08:25:46.529Z,23.65
2023-05-14T08:26:45.588Z,23.64
2023-05-14T08:27:45.560Z,23.64
2023-05-14T08:28:45.562Z,23.64
2023-05-14T08:29:45.579Z,23.64
2023-05-14T08:30:45.582Z,23.65
2023-05-14T08:31:45.565Z,23.65
2023-05-14T08:32:46.618Z,23.65
2023-05-14T08:33:45.581Z,23.65
2023-05-14T08:34:45.586Z,23.65
2023-05-14T08:35:46.599Z,23.70
2023-05-14T08:36:45.580Z,23.68
2023-05-14T08:37:46.625Z,23.65
2023-05-14T08:38:46.595Z,23.67
2023-05-14T08:39:46.593Z,23.70
2023-05-14T08:40:46.598Z,23.70
2023-05-14T08:41:45.591Z,23.71
2023-05-14T08:42:45.626Z,23.72
2023-05-14T08:43:45.604Z,23.71
2023-05-14T08:44:46.598Z,23.70
2023-05-14T08:45:45.572Z,23.71
2023-05-14T08:46:46.645Z,23.72
2023-05-14T08:47:45.622Z,23.72
2023-05-14T08:48:45.614Z,23.74
2023-05-14T08:49:46.584Z,23.72
2023-05-14T08:50:45.572Z,23.74
2023-05-14T08:51:45.572Z,23.72
2023-05-14T08:52:46.572Z,23.74
2023-05-14T08:53:46.568Z,23.75
2023-05-14T08:54:45.582Z,23.75
2023-05-14T08:55:45.573Z,23.78
2023-05-14T08:56:45.553Z,23.75
2023-05-14T08:57:46.541Z,23.80
2023-05-14T08:58:46.565Z,23.77
2023-05-14T08:59:45.618Z,23.77
2023-05-14T09:00:45.553Z,23.78
2023-05-14T09:01:46.658Z,23.80
2023-05-14T09:02:46.587Z,23.80
2023-05-14T09:03:45.607Z,23.78
2023-05-14T09:04:46.557Z,23.75
2023-05-14T09:05:45.542Z,23.78
2023-05-14T09:06:46.544Z,23.81
2023-05-14T09:07:46.536Z,23.80
2023-05-14T09:08:46.583Z,23.82
2023-05-14T09:09:46.532Z,23.84
2023-05-14T09:10:46.526Z,23.81
2023-05-14T09:11:45.525Z,23.85
2023-05-14T09:12:45.546Z,23.87
2023-05-14T09:13:45.521Z,23.84
2023-05-14T09:14:46.550Z,23.88
2023-05-14T09:15:45.530Z,23.81
2023-05-14T09:16:46.667Z,23.85
2023-05-14T09:17:46.590Z,23.87
2023-05-14T09:18:46.588Z,23.85
2023-05-14T09:19:45.523Z,23.84
2023-05-14T09:20:45.546Z,23.85
2023-05-14T09:21:46.553Z,23.88
2023-05-14T09:22:45.548Z,23.85
2023-05-14T09:23:45.555Z,23.85
2023-05-14T09:24:45.537Z,23.89
2023-05-14T09:25:46.539Z,23.89
2023-05-14T09:26:46.538Z,23.89
2023-05-14T09:27:45.534Z,23.89
2023-05-14T09:28:45.546Z,23.88
2023-05-14T09:29:45.536Z,23.89
2023-05-14T09:30:46.563Z,23.91
2023-05-14T09:31:46.569Z,23.92
2023-05-14T09:32:45.572Z,23.92
2023-05-14T09:33:46.549Z,23.91
2023-05-14T09:34:45.547Z,23.92
2023-05-14T09:35:46.575Z,23.92
2023-05-14T09:36:46.559Z,23.92
2023-05-14T09:37:46.550Z,23.95
2023-05-14T09:38:46.552Z,23.95
2023-05-14T09:39:45.574Z,23.95
2023-05-14T09:40:46.584Z,23.97
2023-05-14T09:41:45.581Z,23.95
2023-05-14T09:42:45.586Z,23.97
2023-05-14T09:43:45.588Z,23.95
2023-05-14T09:44:45.605Z,23.97
2023-05-14T09:45:45.606Z,23.97
2023-05-14T09:46:45.624Z,23.95
2023-05-14T09:47:45.939Z,23.97
2023-05-14T09:48:45.650Z,23.98
2023-05-14T09:49:46.596Z,23.99
2023-05-14T09:50:45.732Z,23.98
2023-05-14T09:51:45.593Z,23.99
2023-05-14T09:52:46.603Z,24.01
2023-05-14T09:53:45.640Z,24.01
2023-05-14T09:54:45.623Z,23.99
2023-05-14T09:55:45.618Z,24.01
2023-05-14T09:56:45.630Z,24.02
2023-05-14T09:57:46.618Z,24.01
2023-05-14T09:58:45.629Z,24.01
2023-05-14T09:59:46.627Z,24.01
2023-05-14T10:00:45.662Z,24.01
2023-05-14T10:01:45.718Z,24.02
2023-05-14T10:02:46.714Z,24.04
2023-05-14T10:03:46.657Z,24.02
2023-05-14T10:04:46.750Z,24.02
2023-05-14T10:05:46.657Z,24.05
2023-05-14T10:06:46.676Z,24.04
2023-05-14T10:07:46.689Z,24.04
2023-05-14T10:08:46.672Z,24.06
2023-05-14T10:09:46.673Z,24.05
2023-05-14T10:10:45.683Z,24.04
2023-05-14T10:11:46.679Z,24.04
2023-05-14T10:12:45.653Z,24.05
2023-05-14T10:13:46.683Z,24.06
2023-05-14T10:14:45.670Z,24.04
2023-05-14T10:15:46.658Z,24.05
2023-05-14T10:16:46.680Z,24.08
2023-05-14T10:17:46.670Z,24.06
2023-05-14T10:18:45.736Z,24.06
2023-05-14T10:19:46.664Z,24.08
2023-05-14T10:20:45.637Z,24.08
2023-05-14T10:21:45.644Z,24.08
2023-05-14T10:22:45.649Z,24.06
2023-05-14T10:23:46.672Z,24.08
2023-05-14T10:24:45.639Z,24.06
2023-05-14T10:25:45.655Z,24.08
2023-05-14T10:26:45.632Z,24.09
2023-05-14T10:27:45.624Z,24.08
2023-05-14T10:28:45.625Z,24.11
2023-05-14T10:29:46.625Z,24.11
2023-05-14T10:30:46.773Z,24.06
2023-05-14T10:31:45.662Z,24.08
2023-05-14T10:32:45.644Z,24.09
2023-05-14T10:33:46.623Z,24.11
2023-05-14T10:34:46.623Z,24.11
2023-05-14T10:35:46.603Z,24.12
2023-05-14T10:36:46.598Z,24.12
2023-05-14T10:37:46.610Z,24.13
2023-05-14T10:38:46.598Z,24.12
2023-05-14T10:39:45.622Z,24.11
2023-05-14T10:40:45.591Z,24.11
2023-05-14T10:41:46.597Z,24.12
2023-05-14T10:42:45.590Z,24.13
2023-05-14T10:43:45.589Z,24.12
2023-05-14T10:44:46.579Z,24.13
2023-05-14T10:45:45.576Z,24.13
2023-05-14T10:46:46.603Z,24.15
2023-05-14T10:47:45.614Z,24.15
2023-05-14T10:48:46.596Z,24.13
2023-05-14T10:49:46.596Z,24.13
2023-05-14T10:50:45.622Z,24.15
2023-05-14T10:51:45.620Z,24.15
2023-05-14T10:52:46.634Z,24.16
2023-05-14T10:53:45.677Z,24.15
2023-05-14T10:54:46.659Z,24.17
2023-05-14T10:55:45.678Z,24.17
2023-05-14T10:56:46.683Z,24.16
2023-05-14T10:57:45.710Z,24.17
2023-05-14T10:58:46.742Z,24.17
2023-05-14T10:59:46.754Z,24.17
2023-05-14T11:00:45.757Z,24.20
2023-05-14T11:01:46.814Z,24.17
2023-05-14T11:02:45.865Z,24.20
2023-05-14T11:03:46.982Z,24.17
2023-05-14T11:04:46.849Z,24.20
2023-05-14T11:05:45.865Z,24.19
2023-05-14T11:06:45.890Z,24.19
2023-05-14T11:07:46.884Z,24.20
2023-05-14T11:08:46.972Z,24.22
2023-05-14T11:09:46.987Z,24.22
2023-05-14T11:10:46.016Z,24.22
2023-05-14T11:11:46.032Z,24.23
2023-05-14T11:12:46.098Z,24.23
2023-05-14T11:13:47.113Z,24.23
2023-05-14T11:14:47.141Z,24.26
2023-05-14T11:15:46.173Z,24.23
2023-05-14T11:16:47.233Z,24.25
2023-05-14T11:17:47.296Z,24.27
2023-05-14T11:18:46.300Z,24.25
2023-05-14T11:19:49.744Z,24.26
2023-05-14T11:20:47.292Z,24.23
2023-05-14T11:21:47.349Z,24.29
2023-05-14T11:22:46.387Z,24.27
2023-05-14T11:23:47.284Z,24.27
2023-05-14T11:24:46.292Z,24.29
2023-05-14T11:25:46.314Z,24.27
2023-05-14T11:26:46.242Z,24.29
2023-05-14T11:27:46.231Z,24.29
2023-05-14T11:28:47.232Z,24.30
2023-05-14T11:29:46.281Z,24.30
2023-05-14T11:30:47.212Z,24.30
2023-05-14T11:31:47.256Z,24.30
2023-05-14T11:32:46.289Z,24.32
2023-05-14T11:33:46.259Z,24.30
2023-05-14T11:34:46.349Z,24.33
2023-05-14T11:35:47.402Z,24.32
2023-05-14T11:36:46.476Z,24.32
2023-05-14T11:37:47.522Z,24.36
2023-05-14T11:38:47.609Z,24.32
2023-05-14T11:39:46.696Z,24.32
2023-05-14T11:40:47.709Z,24.34
2023-05-14T11:41:46.800Z,24.33
2023-05-14T11:42:46.836Z,24.33
2023-05-14T11:43:47.875Z,24.34
2023-05-14T11:44:47.923Z,24.36
2023-05-14T11:45:48.036Z,24.34
2023-05-14T11:46:47.060Z,24.34
2023-05-14T11:47:47.171Z,24.36
2023-05-14T11:48:48.199Z,24.36
2023-05-14T11:49:48.226Z,24.34
2023-05-14T11:50:48.321Z,24.36
2023-05-14T11:51:48.380Z,24.34
2023-05-14T11:52:47.419Z,24.37
2023-05-14T11:53:48.497Z,24.36
2023-05-14T11:54:47.575Z,24.36
2023-05-14T11:55:47.591Z,24.37
2023-05-14T11:56:48.655Z,24.37
2023-05-14T11:57:48.704Z,24.36
2023-05-14T11:58:47.762Z,24.37
2023-05-14T11:59:48.814Z,24.37
2023-05-14T12:00:48.889Z,24.39
2023-05-14T12:01:49.524Z,24.39
2023-05-14T12:02:48.052Z,24.37
2023-05-14T12:03:48.021Z,24.39
2023-05-14T12:04:48.948Z,24.39
2023-05-14T12:05:47.910Z,24.37
2023-05-14T12:06:47.907Z,24.39
2023-05-14T12:07:48.908Z,24.37
2023-05-14T12:08:48.867Z,24.39
2023-05-14T12:09:47.894Z,24.39
2023-05-14T12:10:48.879Z,24.39
2023-05-14T12:11:47.859Z,24.39
2023-05-14T12:12:48.852Z,24.40
2023-05-14T12:13:48.847Z,24.39
2023-05-14T12:14:48.855Z,24.43
2023-05-14T12:15:48.859Z,24.40
2023-05-14T12:16:47.891Z,24.40
2023-05-14T12:17:47.850Z,24.40
2023-05-14T12:18:47.846Z,24.39
2023-05-14T12:19:47.808Z,24.39
2023-05-14T12:20:48.847Z,24.39
2023-05-14T12:21:47.818Z,24.39
2023-05-14T12:22:48.783Z,24.39
2023-05-14T12:23:47.784Z,24.40
2023-05-14T12:24:48.756Z,24.37
2023-05-14T12:25:47.804Z,24.39
2023-05-14T12:26:48.891Z,24.40
2023-05-14T12:27:48.903Z,24.40
2023-05-14T12:28:49.027Z,24.39
2023-05-14T12:29:49.042Z,24.40
2023-05-14T12:30:49.103Z,24.37
2023-05-14T12:31:48.214Z,24.39
2023-05-14T12:32:49.238Z,24.37
2023-05-14T12:33:49.271Z,24.40
2023-05-14T12:34:48.327Z,24.36
2023-05-14T12:35:49.361Z,24.39
2023-05-14T12:36:49.433Z,24.37
2023-05-14T12:37:48.461Z,24.37
2023-05-14T12:38:49.518Z,24.39
2023-05-14T12:39:49.590Z,24.39
2023-05-14T12:40:48.652Z,24.36
2023-05-14T12:41:48.717Z,24.36
2023-05-14T12:42:48.807Z,24.37
2023-05-14T12:43:49.832Z,24.36
2023-05-14T12:44:48.918Z,24.39
2023-05-14T12:45:49.965Z,24.37
2023-05-14T12:46:50.086Z,24.36
2023-05-14T12:47:50.158Z,24.36
2023-05-14T12:48:52.373Z,24.40
2023-05-14T12:49:49.152Z,24.36
2023-05-14T12:50:50.133Z,24.37
2023-05-14T12:51:52.681Z,24.37
2023-05-14T12:52:50.132Z,24.36